Time;durP1;ratioP1;P1;durP2;ratioP2;P2;SDS_P1;SDS_P2;PMS_P1;PMS_P2;Temp;Humidity;BMP_temperature;BMP_pressure;BME280_temperature;BME280_humidity;BME280_pressure;Samples;Min_cycle;Max_cycle;Signal;HPM_P1;HPM_P2
2023/03/06 00:00:34;;;;;;;17.88;7.45;;;4.30;1.00;;;;;;5090255;28;20436;-57
2023/03/06 00:03:00;;;;;;;21.20;8.10;;;5.50;1.00;;;;;;5091034;28;20519;-56
2023/03/06 00:05:25;;;;;;;24.90;8.60;;;4.30;1.00;;;;;;5089625;28;21101;-57
2023/03/06 00:07:51;;;;;;;25.58;10.27;;;4.30;1.00;;;;;;5090718;28;20968;-57
2023/03/06 00:10:23;;;;;;;23.45;9.05;;;4.20;1.00;;;;;;5088582;28;20752;-57
2023/03/06 00:12:54;;;;;;;24.63;9.20;;;4.20;1.00;;;;;;5090501;28;20475;-56
2023/03/06 00:15:20;;;;;;;21.58;9.18;;;4.20;1.00;;;;;;5089469;28;20463;-56
2023/03/06 00:17:46;;;;;;;20.42;8.20;;;4.20;1.00;;;;;;5090528;28;20390;-56
2023/03/06 00:20:12;;;;;;;22.70;9.07;;;4.30;1.00;;;;;;5089625;28;20409;-56
2023/03/06 00:22:38;;;;;;;21.77;9.57;;;4.20;1.00;;;;;;5088751;28;20454;-57
2023/03/06 00:25:05;;;;;;;23.93;9.23;;;4.20;1.00;;;;;;5090265;28;20943;-56
2023/03/06 00:27:31;;;;;;;22.20;9.25;;;4.10;1.00;;;;;;5089942;28;20473;-56
2023/03/06 00:29:58;;;;;;;20.35;8.90;;;5.10;1.00;;;;;;5089659;28;21267;-56
2023/03/06 00:32:25;;;;;;;19.38;9.10;;;4.10;1.00;;;;;;5089378;28;20636;-57
2023/03/06 00:34:51;;;;;;;20.92;8.95;;;4.90;1.00;;;;;;5090385;28;20418;-56
2023/03/06 00:37:17;;;;;;;19.33;9.15;;;4.10;1.00;;;;;;5089356;28;20393;-56
2023/03/06 00:39:43;;;;;;;21.00;9.10;;;4.20;1.00;;;;;;5090456;28;20388;-56
2023/03/06 00:42:09;;;;;;;21.75;8.48;;;4.20;1.00;;;;;;5089691;28;20465;-57
2023/03/06 00:44:35;;;;;;;19.58;8.00;;;4.10;1.00;;;;;;5089626;28;20398;-56
2023/03/06 00:47:01;;;;;;;26.38;10.82;;;5.00;1.00;;;;;;5090007;28;20425;-56
2023/03/06 00:49:26;;;;;;;22.50;9.30;;;4.50;1.00;;;;;;5089400;28;20388;-56
2023/03/06 00:51:52;;;;;;;19.65;7.95;;;5.00;1.00;;;;;;5090010;28;20378;-56
2023/03/06 00:54:17;;;;;;;19.63;8.63;;;4.00;1.00;;;;;;5088769;28;20394;-57
2023/03/06 00:56:44;;;;;;;20.75;9.25;;;5.00;1.00;;;;;;5089784;28;20831;-56
2023/03/06 00:59:10;;;;;;;19.85;8.40;;;4.20;1.00;;;;;;5088964;28;20488;-57
2023/03/06 01:01:36;;;;;;;20.50;9.00;;;4.10;1.00;;;;;;5089683;28;20394;-56
2023/03/06 01:04:01;;;;;;;18.88;8.75;;;4.10;1.00;;;;;;5088442;28;20867;-56
2023/03/06 01:06:27;;;;;;;16.58;7.82;;;4.10;1.00;;;;;;5088949;28;21007;-56
2023/03/06 01:08:53;;;;;;;23.90;8.80;;;4.00;1.00;;;;;;5090035;28;20464;-56
2023/03/06 01:11:18;;;;;;;19.80;8.47;;;4.00;1.00;;;;;;5088503;28;20495;-56
2023/03/06 01:13:44;;;;;;;21.42;8.93;;;3.90;1.00;;;;;;5089527;28;20386;-56
2023/03/06 01:16:14;;;;;;;19.60;8.37;;;3.90;1.00;;;;;;5088864;28;20475;-57
2023/03/06 01:18:40;;;;;;;20.80;8.30;;;4.00;1.00;;;;;;5089624;28;20390;-56
2023/03/06 01:21:06;;;;;;;21.13;8.07;;;4.00;1.00;;;;;;5089259;28;20856;-57
2023/03/06 01:23:32;;;;;;;23.07;8.33;;;3.90;1.00;;;;;;5089423;28;20441;-56
2023/03/06 01:25:58;;;;;;;20.87;8.57;;;3.90;1.00;;;;;;5089293;28;20414;-56
2023/03/06 01:28:23;;;;;;;19.88;8.50;;;3.90;1.00;;;;;;5088470;28;20436;-56
2023/03/06 01:30:49;;;;;;;20.17;7.70;;;3.90;1.00;;;;;;5089515;28;20394;-56
2023/03/06 01:33:15;;;;;;;22.07;8.97;;;3.90;1.00;;;;;;5088497;28;20463;-56
2023/03/06 01:35:43;;;;;;;21.73;8.30;;;4.00;1.00;;;;;;5089532;28;20405;-56
2023/03/06 01:38:08;;;;;;;21.90;7.60;;;3.90;1.00;;;;;;5088819;28;20390;-57
2023/03/06 01:40:35;;;;;;;21.43;9.40;;;3.90;1.00;;;;;;5089468;28;20955;-56
2023/03/06 01:43:24;;;;;;;18.95;8.40;;;3.90;1.00;;;;;;5088918;28;20387;-56
2023/03/06 01:45:50;;;;;;;18.52;7.93;;;3.90;1.00;;;;;;5089062;28;20414;-56
2023/03/06 01:48:20;;;;;;;17.90;7.85;;;4.00;1.00;;;;;;5088643;28;20398;-56
2023/03/06 01:50:45;;;;;;;18.33;8.45;;;4.10;1.00;;;;;;5089201;28;20394;-56
2023/03/06 01:53:12;;;;;;;19.70;9.25;;;5.80;1.00;;;;;;5088825;28;20400;-56
2023/03/06 01:55:38;;;;;;;18.30;8.20;;;4.10;1.00;;;;;;5089118;28;20457;-56
2023/03/06 01:58:14;;;;;;;20.67;8.57;;;5.60;1.00;;;;;;5089445;28;20749;-56
2023/03/06 02:00:40;;;;;;;21.95;9.30;;;4.20;1.00;;;;;;5089348;28;20444;-56
2023/03/06 02:03:22;;;;;;;17.30;7.83;;;4.20;1.00;;;;;;5088835;28;20406;-56
2023/03/06 02:05:47;;;;;;;19.60;8.30;;;4.30;1.00;;;;;;5089073;28;20534;-56
2023/03/06 02:08:18;;;;;;;20.25;8.32;;;4.20;1.00;;;;;;5087802;28;20495;-56
2023/03/06 02:11:01;;;;;;;17.58;8.07;;;4.20;1.00;;;;;;5088819;28;20393;-56
2023/03/06 02:13:27;;;;;;;18.35;7.45;;;5.80;1.00;;;;;;5088248;28;20774;-56
2023/03/06 02:15:53;;;;;;;20.90;7.70;;;4.10;1.00;;;;;;5087553;28;20405;-56
2023/03/06 02:18:19;;;;;;;21.50;8.50;;;4.10;1.00;;;;;;5088161;28;20390;-56
2023/03/06 02:20:57;;;;;;;18.83;7.90;;;5.30;1.00;;;;;;5089036;28;20485;-56
2023/03/06 02:23:37;;;;;;;19.40;7.78;;;5.80;1.00;;;;;;5091332;28;20394;-56
2023/03/06 02:26:05;;;;;;;15.70;7.40;;;5.80;1.00;;;;;;5092007;28;20426;-56
2023/03/06 02:28:31;;;;;;;17.88;7.22;;;4.10;1.00;;;;;;5091544;28;20442;-56
2023/03/06 02:30:57;;;;;;;16.77;7.53;;;5.10;1.00;;;;;;5092719;28;20836;-56
2023/03/06 02:33:26;;;;;;;17.80;7.97;;;4.00;1.00;;;;;;5091422;28;20386;-56
2023/03/06 02:35:54;;;;;;;17.35;7.43;;;5.50;1.00;;;;;;5092511;28;20370;-56
2023/03/06 02:38:23;;;;;;;20.80;7.70;;;5.50;1.00;;;;;;5091559;28;20790;-56
2023/03/06 02:40:50;;;;;;;18.90;8.30;;;5.20;1.00;;;;;;5092376;28;20389;-56
2023/03/06 02:43:23;;;;;;;19.30;8.20;;;4.80;1.00;;;;;;5091197;28;20473;-56
2023/03/06 02:45:50;;;;;;;18.40;7.20;;;5.40;1.00;;;;;;5091830;28;20764;-56
2023/03/06 02:48:17;;;;;;;16.08;7.00;;;5.00;1.00;;;;;;5091422;28;20393;-56
2023/03/06 02:50:43;;;;;;;17.80;7.67;;;3.80;1.00;;;;;;5091867;28;20474;-56
2023/03/06 02:53:11;;;;;;;19.00;7.15;;;3.90;1.00;;;;;;5091671;28;20778;-56
2023/03/06 02:55:37;;;;;;;18.33;7.07;;;3.70;1.00;;;;;;5092055;28;20482;-56
2023/03/06 02:58:03;;;;;;;16.27;7.43;;;5.40;1.00;;;;;;5091674;28;20481;-56
2023/03/06 03:00:30;;;;;;;17.48;6.55;;;3.60;1.00;;;;;;5091045;28;20390;-56
2023/03/06 03:02:56;;;;;;;19.83;7.43;;;3.50;1.00;;;;;;5092051;28;20894;-56
2023/03/06 03:05:22;;;;;;;14.85;7.57;;;3.50;1.00;;;;;;5090786;28;20414;-56
2023/03/06 03:07:47;;;;;;;18.00;6.28;;;3.40;1.00;;;;;;5091792;28;20461;-56
2023/03/06 03:10:13;;;;;;;17.73;6.90;;;3.40;1.00;;;;;;5090890;28;20436;-56
2023/03/06 03:12:39;;;;;;;17.88;6.60;;;3.40;1.00;;;;;;5090317;28;20422;-56
2023/03/06 03:15:07;;;;;;;18.58;7.57;;;3.40;1.00;;;;;;5091579;28;20898;-56
2023/03/06 03:17:37;;;;;;;15.40;6.35;;;3.40;1.00;;;;;;5091178;28;20409;-56
2023/03/06 03:20:07;;;;;;;15.05;5.38;;;4.10;1.00;;;;;;5091463;28;20389;-56
2023/03/06 03:22:33;;;;;;;15.00;6.03;;;3.40;1.00;;;;;;5091011;28;20406;-56
2023/03/06 03:24:58;;;;;;;15.60;5.80;;;3.40;1.00;;;;;;5091420;28;20394;-55
2023/03/06 03:27:24;;;;;;;17.70;6.73;;;3.40;1.00;;;;;;5090153;28;20768;-55
2023/03/06 03:29:50;;;;;;;16.07;6.50;;;4.30;1.00;;;;;;5091462;28;20414;-56
2023/03/06 03:32:16;;;;;;;19.10;6.47;;;3.50;1.00;;;;;;5090625;28;20882;-55
2023/03/06 03:34:42;;;;;;;16.08;6.03;;;4.80;1.00;;;;;;5090359;28;20398;-56
2023/03/06 03:37:08;;;;;;;15.97;5.83;;;3.40;1.00;;;;;;5090769;28;20752;-56
2023/03/06 03:39:34;;;;;;;18.38;6.20;;;3.40;1.00;;;;;;5089228;28;20887;-56
2023/03/06 03:41:59;;;;;;;16.30;6.70;;;3.30;1.00;;;;;;5090917;28;20398;-56
2023/03/06 03:44:25;;;;;;;17.67;7.20;;;3.30;1.00;;;;;;5090248;28;20398;-56
2023/03/06 03:46:50;;;;;;;13.95;5.72;;;3.40;1.00;;;;;;5089746;28;20898;-56
2023/03/06 03:49:17;;;;;;;16.30;5.97;;;3.40;1.00;;;;;;5090086;28;20545;-56
2023/03/06 03:51:43;;;;;;;15.55;6.35;;;3.40;1.00;;;;;;5090868;28;20401;-55
2023/03/06 03:54:09;;;;;;;14.20;5.93;;;3.40;1.00;;;;;;5090778;28;20386;-57
2023/03/06 03:56:35;;;;;;;18.73;6.65;;;3.40;1.00;;;;;;5090287;28;21032;-56
2023/03/06 03:59:01;;;;;;;15.80;5.90;;;5.00;1.00;;;;;;5078911;28;20473;-56
2023/03/06 04:01:27;;;;;;;14.32;6.60;;;3.60;1.00;;;;;;5089785;28;20396;-56
2023/03/06 04:03:52;;;;;;;14.45;5.55;;;3.30;1.00;;;;;;5090502;28;20394;-56
2023/03/06 04:06:18;;;;;;;15.17;5.80;;;3.30;1.00;;;;;;5089756;28;20417;-57
2023/03/06 04:08:44;;;;;;;14.70;5.85;;;4.90;1.00;;;;;;5090676;28;20386;-56
2023/03/06 04:11:09;;;;;;;13.60;5.03;;;3.40;1.00;;;;;;5090629;28;20380;-56
2023/03/06 04:13:36;;;;;;;14.80;5.67;;;3.40;1.00;;;;;;5090409;28;20378;-57
2023/03/06 04:16:02;;;;;;;13.35;5.22;;;3.50;1.00;;;;;;5090388;28;20437;-56
2023/03/06 04:18:27;;;;;;;14.13;5.63;;;3.50;1.00;;;;;;5089674;28;20390;-59
2023/03/06 04:20:53;;;;;;;13.47;6.10;;;4.80;1.00;;;;;;5090360;28;20390;-56
2023/03/06 04:23:19;;;;;;;13.18;5.43;;;3.50;1.00;;;;;;5089538;28;20390;-56
2023/03/06 04:25:45;;;;;;;15.35;6.07;;;3.40;1.00;;;;;;5089926;28;20410;-56
2023/03/06 04:28:11;;;;;;;15.15;6.28;;;3.40;1.00;;;;;;5089615;28;20398;-56
2023/03/06 04:30:37;;;;;;;16.30;6.00;;;3.30;1.00;;;;;;5082490;28;20432;-56
2023/03/06 04:33:03;;;;;;;16.50;5.95;;;4.10;1.00;;;;;;5050154;28;20438;-55
2023/03/06 04:35:29;;;;;;;15.15;5.15;;;3.40;1.00;;;;;;5049362;28;20381;-55
2023/03/06 04:37:54;;;;;;;13.63;5.43;;;3.40;1.00;;;;;;5074061;28;20397;-56
2023/03/06 04:40:26;;;;;;;15.53;5.80;;;3.40;1.00;;;;;;5084528;28;20393;-56
2023/03/06 04:42:53;;;;;;;16.95;5.60;;;3.80;1.00;;;;;;5081799;28;20462;-56
2023/03/06 04:45:19;;;;;;;14.68;6.30;;;3.40;1.00;;;;;;5088591;28;20382;-56
2023/03/06 04:47:45;;;;;;;14.20;5.40;;;4.00;1.00;;;;;;5089933;28;20402;-56
2023/03/06 04:50:10;;;;;;;17.27;6.40;;;3.30;1.00;;;;;;5088357;28;20731;-56
2023/03/06 04:52:36;;;;;;;15.90;6.00;;;3.30;1.00;;;;;;5049753;28;20389;-56
2023/03/06 04:55:07;;;;;;;17.03;6.73;;;3.30;1.00;;;;;;5079165;28;20394;-56
2023/03/06 04:57:37;;;;;;;17.43;6.37;;;3.30;1.00;;;;;;5088927;28;20493;-56
2023/03/06 05:00:11;;;;;;;16.03;6.30;;;3.30;1.00;;;;;;5089543;28;20428;-57
2023/03/06 05:02:37;;;;;;;15.73;5.95;;;3.30;1.00;;;;;;5081455;28;20446;-56
2023/03/06 05:05:03;;;;;;;18.15;6.50;;;3.30;1.00;;;;;;5089146;28;20409;-56
2023/03/06 05:07:28;;;;;;;17.45;5.93;;;3.30;1.00;;;;;;5085709;28;20406;-56
2023/03/06 05:09:54;;;;;;;17.92;6.57;;;3.30;1.00;;;;;;5087170;28;20402;-56
2023/03/06 05:12:20;;;;;;;16.03;5.80;;;3.40;1.00;;;;;;5087921;28;20401;-56
2023/03/06 05:14:45;;;;;;;14.20;6.20;;;3.40;1.00;;;;;;5089170;28;20865;-55
2023/03/06 05:17:11;;;;;;;16.52;6.13;;;3.40;1.00;;;;;;5088616;28;20404;-56
2023/03/06 05:19:37;;;;;;;14.23;5.87;;;3.30;1.00;;;;;;5088528;28;20875;-55
2023/03/06 05:22:03;;;;;;;14.27;6.28;;;3.20;1.00;;;;;;5088834;28;20390;-55
2023/03/06 05:24:28;;;;;;;13.63;5.30;;;3.20;1.00;;;;;;5086773;28;21209;-56
2023/03/06 05:26:54;;;;;;;16.57;5.90;;;3.20;1.00;;;;;;5089131;28;20421;-56
2023/03/06 05:29:19;;;;;;;14.80;5.80;;;3.10;1.00;;;;;;5070749;28;20412;-55
2023/03/06 05:31:45;;;;;;;15.18;6.60;;;3.10;1.00;;;;;;5063819;28;20398;-56
2023/03/06 05:34:15;;;;;;;14.97;6.50;;;3.10;1.00;;;;;;5061252;28;20380;-56
2023/03/06 05:36:41;;;;;;;16.63;6.78;;;3.00;1.00;;;;;;5076692;28;20401;-56
2023/03/06 05:39:08;;;;;;;15.30;6.63;;;4.00;1.00;;;;;;5068540;28;20759;-56
2023/03/06 05:41:33;;;;;;;15.50;6.78;;;3.10;1.00;;;;;;5077483;28;20401;-56
2023/03/06 05:43:59;;;;;;;14.07;5.80;;;3.10;1.00;;;;;;5071186;28;20394;-56
2023/03/06 05:46:25;;;;;;;20.30;6.97;;;4.80;1.00;;;;;;5071044;28;20410;-56
2023/03/06 05:48:54;;;;;;;14.52;6.80;;;3.10;1.00;;;;;;5071059;28;20734;-56
2023/03/06 05:51:21;;;;;;;14.45;6.20;;;3.20;1.00;;;;;;5063747;28;20402;-55
2023/03/06 05:53:46;;;;;;;15.45;5.65;;;5.00;1.00;;;;;;5060088;28;20399;-55
2023/03/06 05:56:12;;;;;;;17.48;6.57;;;3.20;1.00;;;;;;5058223;28;20420;-56
2023/03/06 05:58:38;;;;;;;15.43;5.72;;;3.20;1.00;;;;;;5064228;28;20429;-56
2023/03/06 06:01:10;;;;;;;15.27;6.27;;;4.70;1.00;;;;;;5074721;28;20396;-56
2023/03/06 06:03:36;;;;;;;17.83;6.38;;;3.20;1.00;;;;;;5059493;28;20411;-56
2023/03/06 06:06:06;;;;;;;16.50;6.15;;;4.20;1.00;;;;;;5063794;28;20419;-55
2023/03/06 06:08:32;;;;;;;17.00;6.53;;;3.20;1.00;;;;;;5064463;28;20435;-55
2023/03/06 06:10:57;;;;;;;15.02;6.28;;;4.00;1.00;;;;;;5068230;28;20542;-55
2023/03/06 06:13:23;;;;;;;16.40;6.27;;;4.80;1.00;;;;;;5062377;28;20414;-56
2023/03/06 06:15:48;;;;;;;13.60;5.77;;;3.10;1.00;;;;;;5059712;28;20568;-55
2023/03/06 06:18:14;;;;;;;18.67;6.80;;;3.30;1.00;;;;;;5066373;28;20455;-56
2023/03/06 06:20:40;;;;;;;19.70;5.73;;;3.30;1.00;;;;;;5073250;28;20751;-60
2023/03/06 06:23:05;;;;;;;14.32;5.18;;;3.40;1.00;;;;;;5062618;28;20396;-56
2023/03/06 06:25:32;;;;;;;14.60;6.10;;;3.40;1.00;;;;;;5059553;28;20503;-56
2023/03/06 06:27:57;;;;;;;12.73;6.00;;;3.30;1.00;;;;;;5063043;28;20396;-57
2023/03/06 06:30:23;;;;;;;19.87;6.50;;;3.20;1.00;;;;;;5062411;28;20441;-56
2023/03/06 06:32:49;;;;;;;13.85;6.20;;;3.20;1.00;;;;;;5071963;28;20382;-57
2023/03/06 06:35:15;;;;;;;15.60;6.00;;;3.20;1.00;;;;;;5067364;28;20402;-56
2023/03/06 06:37:41;;;;;;;13.48;5.38;;;3.20;1.00;;;;;;5088609;28;20397;-56
2023/03/06 06:40:07;;;;;;;16.20;6.30;;;3.20;1.00;;;;;;5091713;28;20391;-56
2023/03/06 06:42:35;;;;;;;17.40;6.70;;;3.20;1.00;;;;;;5091643;28;20374;-56
2023/03/06 06:45:01;;;;;;;16.33;6.65;;;3.20;1.00;;;;;;5071876;28;20390;-56
2023/03/06 06:47:27;;;;;;;16.37;7.00;;;3.20;1.00;;;;;;5071272;28;20498;-56
2023/03/06 06:49:54;;;;;;;14.37;6.40;;;3.10;1.00;;;;;;5072246;28;20525;-56
2023/03/06 06:52:20;;;;;;;16.13;6.07;;;3.20;1.00;;;;;;5071150;28;20382;-56
2023/03/06 06:54:46;;;;;;;17.48;6.78;;;3.30;1.00;;;;;;5071985;28;20712;-56
2023/03/06 06:57:12;;;;;;;13.77;6.07;;;3.40;1.00;;;;;;5092159;28;20386;-56
2023/03/06 06:59:37;;;;;;;17.08;6.57;;;3.50;1.00;;;;;;5090294;28;20522;-56
2023/03/06 07:02:03;;;;;;;15.77;6.30;;;3.60;1.00;;;;;;5092012;28;20386;-56
2023/03/06 07:04:29;;;;;;;15.30;5.55;;;4.70;1.00;;;;;;5075389;28;20453;-56
2023/03/06 07:06:58;;;;;;;14.30;5.55;;;3.60;1.00;;;;;;5069960;28;20803;-56
2023/03/06 07:09:24;;;;;;;16.50;6.80;;;3.60;1.00;;;;;;5076371;28;20457;-56
2023/03/06 07:11:50;;;;;;;16.27;5.55;;;5.30;1.00;;;;;;5077670;28;20386;-56
2023/03/06 07:14:15;;;;;;;18.35;6.32;;;4.20;1.00;;;;;;5087283;28;20390;-56
2023/03/06 07:16:41;;;;;;;13.70;5.53;;;3.50;1.00;;;;;;5090311;28;20452;-56
2023/03/06 07:19:07;;;;;;;14.10;5.65;;;5.30;1.00;;;;;;5085781;28;20557;-56
2023/03/06 07:21:33;;;;;;;16.83;5.90;;;3.60;1.00;;;;;;5064824;28;20461;-56
2023/03/06 07:23:59;;;;;;;15.55;5.82;;;3.70;1.00;;;;;;5089482;28;20426;-56
2023/03/06 07:26:26;;;;;;;13.90;5.45;;;3.90;1.00;;;;;;5090002;28;20457;-56
2023/03/06 07:28:52;;;;;;;14.63;5.53;;;4.00;1.00;;;;;;5090069;28;20416;-56
2023/03/06 07:31:23;;;;;;;16.23;6.50;;;4.70;1.00;;;;;;5090126;28;20409;-56
2023/03/06 07:33:50;;;;;;;16.50;6.57;;;4.00;1.00;;;;;;5091111;28;20401;-56
2023/03/06 07:36:16;;;;;;;16.17;6.13;;;4.10;1.00;;;;;;5090347;28;20414;-56
2023/03/06 07:38:42;;;;;;;15.60;5.63;;;4.00;1.00;;;;;;5091031;28;20418;-56
2023/03/06 07:41:12;;;;;;;17.60;6.70;;;4.00;1.00;;;;;;5075593;28;20477;-56
2023/03/06 07:43:39;;;;;;;14.20;5.47;;;4.00;1.00;;;;;;5090813;28;20490;-56
2023/03/06 07:46:04;;;;;;;16.53;5.93;;;4.00;1.00;;;;;;5090994;28;20429;-55
2023/03/06 07:48:30;;;;;;;17.30;5.77;;;4.10;1.00;;;;;;5090728;28;20832;-55
2023/03/06 07:50:59;;;;;;;17.23;5.80;;;4.10;1.00;;;;;;5072587;28;20861;-56
2023/03/06 07:53:25;;;;;;;14.93;5.82;;;5.70;1.00;;;;;;5089369;28;20465;-56
2023/03/06 07:55:51;;;;;;;16.80;6.00;;;4.20;1.00;;;;;;5090529;28;20492;-55
2023/03/06 07:58:16;;;;;;;14.20;5.70;;;4.20;1.00;;;;;;5089923;28;20394;-56
2023/03/06 08:00:42;;;;;;;14.80;5.50;;;4.60;1.00;;;;;;5088225;28;20413;-56
2023/03/06 08:03:10;;;;;;;15.13;6.23;;;4.30;1.00;;;;;;5090763;28;20413;-56
2023/03/06 08:05:36;;;;;;;14.95;6.15;;;4.40;1.00;;;;;;5089308;28;20492;-56
2023/03/06 08:08:01;;;;;;;14.88;5.03;;;5.50;1.00;;;;;;5090827;28;20806;-56
2023/03/06 08:10:27;;;;;;;12.00;5.63;;;4.80;1.00;;;;;;5090342;28;20859;-56
2023/03/06 08:12:52;;;;;;;14.50;6.30;;;5.50;1.00;;;;;;5090180;28;20701;-56
2023/03/06 08:15:18;;;;;;;16.87;5.50;;;4.90;1.00;;;;;;5081324;28;20481;-56
2023/03/06 08:17:45;;;;;;;17.47;5.63;;;5.00;1.00;;;;;;5090816;28;20778;-57
2023/03/06 08:20:13;;;;;;;14.52;5.68;;;5.10;1.00;;;;;;5086613;28;20394;-56
2023/03/06 08:22:39;;;;;;;13.15;5.40;;;5.20;1.00;;;;;;5089769;28;20394;-57
2023/03/06 08:25:06;;;;;;;14.35;5.32;;;6.00;1.00;;;;;;5090344;28;20875;-57
2023/03/06 08:27:32;;;;;;;13.57;4.80;;;5.60;1.00;;;;;;5086988;28;20490;-56
2023/03/06 08:29:58;;;;;;;16.45;5.95;;;5.50;1.00;;;;;;5088837;28;20832;-56
2023/03/06 08:32:24;;;;;;;14.13;4.80;;;7.20;1.00;;;;;;5089527;28;20390;-58
2023/03/06 08:34:50;;;;;;;11.70;5.00;;;5.70;1.00;;;;;;5089742;28;20451;-58
2023/03/06 08:37:16;;;;;;;13.52;4.68;;;5.60;1.00;;;;;;5088984;28;20477;-58
2023/03/06 08:39:41;;;;;;;13.67;4.90;;;5.50;1.00;;;;;;5089878;28;20746;-56
2023/03/06 08:42:09;;;;;;;13.68;5.22;;;5.50;1.00;;;;;;5089931;28;20434;-56
2023/03/06 08:44:34;;;;;;;15.45;5.15;;;6.70;1.00;;;;;;5088855;28;21030;-56
2023/03/06 08:47:00;;;;;;;13.83;5.57;;;5.40;1.00;;;;;;5089981;28;20425;-56
2023/03/06 08:49:26;;;;;;;13.07;5.20;;;5.50;1.00;;;;;;5081839;28;20404;-56
2023/03/06 08:51:51;;;;;;;14.10;4.80;;;5.60;1.00;;;;;;5087049;28;20398;-56
2023/03/06 08:54:17;;;;;;;16.73;5.50;;;5.40;1.00;;;;;;5087981;28;20390;-56
2023/03/06 08:56:43;;;;;;;11.52;4.72;;;5.20;1.00;;;;;;5089559;28;20484;-56
2023/03/06 08:59:10;;;;;;;14.63;4.67;;;5.30;1.00;;;;;;5089582;28;20394;-56
2023/03/06 09:01:36;;;;;;;15.30;5.97;;;6.90;1.00;;;;;;5088685;28;20408;-56
2023/03/06 09:04:07;;;;;;;11.95;4.18;;;5.20;1.00;;;;;;5089498;28;20715;-56
2023/03/06 09:06:38;;;;;;;12.85;5.10;;;5.00;1.00;;;;;;5088937;28;20416;-55
2023/03/06 09:09:04;;;;;;;12.10;5.00;;;4.90;1.00;;;;;;5089885;28;20390;-55
2023/03/06 09:11:30;;;;;;;13.32;4.30;;;6.70;1.00;;;;;;5087338;28;20398;-55
2023/03/06 09:13:56;;;;;;;12.45;5.25;;;4.90;1.00;;;;;;5088992;28;20398;-55
2023/03/06 09:16:22;;;;;;;12.88;4.55;;;5.80;1.00;;;;;;5088474;28;20926;-56
2023/03/06 09:18:51;;;;;;;13.13;4.20;;;4.70;1.00;;;;;;5088949;28;20466;-57
2023/03/06 09:21:17;;;;;;;15.27;5.40;;;6.30;1.00;;;;;;5073956;28;20913;-57
2023/03/06 09:23:44;;;;;;;13.15;4.80;;;4.70;1.00;;;;;;5089637;28;20435;-55
2023/03/06 09:26:10;;;;;;;16.60;5.97;;;4.70;1.00;;;;;;5087828;28;20421;-56
2023/03/06 09:28:38;;;;;;;17.58;5.78;;;4.70;1.00;;;;;;5088251;28;20864;-56
2023/03/06 09:31:11;;;;;;;12.38;4.72;;;6.00;1.00;;;;;;5090797;28;20381;-56
2023/03/06 09:33:37;;;;;;;18.88;5.95;;;4.60;1.00;;;;;;5092829;28;20413;-56
2023/03/06 09:36:04;;;;;;;14.48;6.00;;;4.50;1.00;;;;;;5093573;28;20378;-56
2023/03/06 09:38:31;;;;;;;14.23;6.07;;;4.30;1.00;;;;;;5092697;28;20412;-56
2023/03/06 09:40:57;;;;;;;16.15;5.28;;;5.10;1.00;;;;;;5093805;28;20431;-56
2023/03/06 09:43:42;;;;;;;16.00;6.45;;;6.20;1.00;;;;;;5092422;28;20412;-56
2023/03/06 09:46:45;;;;;;;14.35;5.50;;;5.30;1.00;;;;;;5093177;28;20445;-56
2023/03/06 09:49:37;;;;;;;14.88;4.70;;;4.80;1.00;;;;;;5089884;28;20865;-55
2023/03/06 09:52:11;;;;;;;14.90;6.00;;;4.80;1.00;;;;;;5073006;28;20380;-56
2023/03/06 09:54:53;;;;;;;13.90;5.20;;;4.80;1.00;;;;;;5086182;28;20421;-55
2023/03/06 09:57:30;;;;;;;16.00;6.00;;;4.90;1.00;;;;;;5092722;28;20393;-56
2023/03/06 10:00:00;;;;;;;12.85;4.57;;;5.20;1.00;;;;;;5093020;28;20751;-56
2023/03/06 10:02:36;;;;;;;12.82;4.85;;;4.90;1.00;;;;;;5090807;28;20815;-56
2023/03/06 10:05:05;;;;;;;15.20;5.97;;;4.90;1.00;;;;;;5092915;28;20378;-56
2023/03/06 10:07:59;;;;;;;15.52;5.85;;;4.90;1.00;;;;;;5092435;28;20496;-56
2023/03/06 10:10:41;;;;;;;14.55;4.82;;;5.30;1.00;;;;;;5091925;28;20393;-56
2023/03/06 10:13:32;;;;;;;14.77;6.20;;;5.10;1.00;;;;;;5090945;28;20378;-55
2023/03/06 10:16:11;;;;;;;12.98;5.72;;;5.10;1.00;;;;;;5072877;28;20429;-56
2023/03/06 10:18:37;;;;;;;15.43;5.68;;;5.00;1.00;;;;;;5071887;28;21131;-55
2023/03/06 10:21:20;;;;;;;14.35;6.03;;;4.90;1.00;;;;;;5072598;28;20525;-56
2023/03/06 10:23:53;;;;;;;14.65;5.40;;;6.10;1.00;;;;;;5088286;28;20434;-56
2023/03/06 10:26:31;;;;;;;12.82;6.00;;;5.10;1.00;;;;;;5090965;28;20516;-56
2023/03/06 10:29:38;;;;;;;13.07;4.95;;;5.00;1.00;;;;;;5082659;28;20410;-55
2023/03/06 10:32:19;;;;;;;13.45;5.82;;;5.90;1.00;;;;;;5091216;28;20481;-56
2023/03/06 10:34:45;;;;;;;13.43;5.60;;;5.30;1.00;;;;;;5076375;28;20424;-56
2023/03/06 10:37:20;;;;;;;14.43;5.55;;;5.40;1.00;;;;;;5092409;28;20390;-56
2023/03/06 10:39:50;;;;;;;14.40;6.07;;;5.30;1.00;;;;;;5092620;28;20382;-56
2023/03/06 10:42:16;;;;;;;15.32;5.97;;;5.20;1.00;;;;;;5087469;28;20386;-56
2023/03/06 10:44:42;;;;;;;15.25;5.90;;;6.80;1.00;;;;;;5091446;28;20389;-56
2023/03/06 10:47:28;;;;;;;12.43;5.20;;;6.20;1.00;;;;;;5092042;28;20823;-55
2023/03/06 10:50:00;;;;;;;13.98;5.35;;;5.30;1.00;;;;;;5082467;28;20386;-55
2023/03/06 10:52:29;;;;;;;12.50;5.57;;;6.20;1.00;;;;;;5071127;28;20376;-55
2023/03/06 10:55:21;;;;;;;14.82;5.60;;;5.50;1.00;;;;;;5071890;28;20423;-56
2023/03/06 10:57:47;;;;;;;11.57;4.78;;;6.20;1.00;;;;;;5072096;28;20392;-56
2023/03/06 11:00:34;;;;;;;15.20;5.05;;;7.40;1.00;;;;;;5072034;28;20383;-56
2023/03/06 11:03:19;;;;;;;11.47;4.87;;;7.20;1.00;;;;;;5082469;28;20405;-56
2023/03/06 11:05:54;;;;;;;13.50;4.55;;;5.80;1.00;;;;;;5092218;28;20386;-55
2023/03/06 11:08:22;;;;;;;12.95;4.45;;;5.90;1.00;;;;;;5089331;28;20397;-56
2023/03/06 11:11:03;;;;;;;12.23;4.80;;;6.00;1.00;;;;;;5091167;28;20394;-57
2023/03/06 11:13:33;;;;;;;13.18;5.40;;;6.00;1.00;;;;;;5085884;28;20396;-57
2023/03/06 11:16:02;;;;;;;14.10;5.70;;;6.20;1.00;;;;;;5081190;28;20394;-57
2023/03/06 11:18:37;;;;;;;12.82;5.00;;;6.30;1.00;;;;;;5090500;28;20390;-57
2023/03/06 11:21:21;;;;;;;12.38;5.00;;;6.20;1.00;;;;;;5088695;28;20489;-57
2023/03/06 11:23:50;;;;;;;13.95;5.38;;;6.10;1.00;;;;;;5091684;28;20459;-58
2023/03/06 11:26:16;;;;;;;14.00;5.50;;;6.30;1.00;;;;;;5090567;28;20771;-58
2023/03/06 11:28:44;;;;;;;13.70;5.90;;;6.50;1.00;;;;;;5089532;28;20490;-58
2023/03/06 11:31:17;;;;;;;14.67;5.97;;;6.40;1.00;;;;;;5091651;28;20390;-58
2023/03/06 11:34:00;;;;;;;15.80;5.90;;;6.40;1.00;;;;;;5091250;28;20370;-59
2023/03/06 11:36:44;;;;;;;13.15;6.22;;;6.40;1.00;;;;;;5088830;28;20409;-58
2023/03/06 11:39:40;;;;;;;16.27;6.10;;;6.30;1.00;;;;;;5091163;28;20403;-58
2023/03/06 11:42:21;;;;;;;12.02;4.20;;;6.30;1.00;;;;;;5091071;28;20387;-58
2023/03/06 11:45:12;;;;;;;11.60;4.32;;;6.10;99.90;;;;;;5083480;28;20436;-58
2023/03/06 11:47:42;;;;;;;12.10;4.90;;;6.10;99.90;;;;;;5070363;28;20410;-58
2023/03/06 11:50:25;;;;;;;14.02;6.30;;;6.40;99.90;;;;;;5070537;28;20384;-58
2023/03/06 11:53:03;;;;;;;13.00;5.80;;;6.70;99.90;;;;;;5086235;28;20504;-58
2023/03/06 11:56:08;;;;;;;14.30;5.45;;;6.70;1.00;;;;;;5082728;28;20832;-58
2023/03/06 11:59:16;;;;;;;13.88;5.25;;;6.90;99.90;;;;;;5074500;28;20406;-58
2023/03/06 12:02:02;;;;;;;14.48;5.53;;;6.90;99.90;;;;;;5058587;28;20422;-58
2023/03/06 12:04:28;;;;;;;16.25;4.72;;;6.80;99.90;;;;;;5090003;28;20508;-58
2023/03/06 12:07:20;;;;;;;15.55;6.00;;;6.60;99.90;;;;;;5090853;28;20406;-58
2023/03/06 12:10:03;;;;;;;16.30;6.45;;;6.70;99.90;;;;;;5090637;28;20394;-58
2023/03/06 12:12:40;;;;;;;15.45;6.13;;;6.80;99.90;;;;;;5089371;28;20394;-58
2023/03/06 12:15:32;;;;;;;15.65;6.00;;;6.90;99.90;;;;;;5087016;28;20386;-58
2023/03/06 12:18:17;;;;;;;15.85;6.10;;;7.30;99.90;;;;;;5081443;28;20398;-59
2023/03/06 12:21:02;;;;;;;13.77;5.80;;;7.60;99.90;;;;;;5083255;28;20425;-58
2023/03/06 12:23:34;;;;;;;13.40;5.43;;;7.70;99.90;;;;;;5089841;28;20378;-59
2023/03/06 12:26:29;;;;;;;14.63;6.00;;;7.90;99.90;;;;;;5088775;28;20411;-58
2023/03/06 12:29:16;;;;;;;13.73;5.82;;;7.80;99.90;;;;;;5087458;28;20999;-58
2023/03/06 12:32:52;;;;;;;18.48;6.13;;;7.70;99.90;;;;;;5089923;28;20466;-57
2023/03/06 12:35:21;;;;;;;15.10;5.97;;;7.50;99.90;;;;;;4996502;28;20835;-58
2023/03/06 12:37:46;;;;;;;12.73;5.18;;;7.30;99.90;;;;;;5038137;28;20490;-58
2023/03/06 12:40:39;;;;;;;14.95;5.57;;;7.90;99.90;;;;;;5078860;28;20967;-58
2023/03/06 12:43:22;;;;;;;14.75;4.85;;;7.20;99.90;;;;;;5090061;28;20736;-58
2023/03/06 12:45:51;;;;;;;18.60;5.60;;;6.90;99.90;;;;;;5089677;28;20378;-58
2023/03/06 12:48:29;;;;;;;12.77;5.10;;;7.10;99.90;;;;;;5083581;28;20386;-58
2023/03/06 12:50:55;;;;;;;22.42;8.55;;;6.70;99.90;;;;;;5067812;28;20387;-58
2023/03/06 12:53:32;;;;;;;14.90;6.45;;;6.80;99.90;;;;;;5077404;28;20385;-59
2023/03/06 12:56:00;;;;;;;22.00;8.53;;;6.80;99.90;;;;;;5089616;28;20409;-57
2023/03/06 12:58:29;;;;;;;19.70;7.85;;;6.90;99.90;;;;;;5089006;28;20744;-58
2023/03/06 13:01:00;;;;;;;24.63;7.93;;;7.00;99.90;;;;;;5088362;28;20412;-58
2023/03/06 13:03:38;;;;;;;21.42;8.55;;;7.20;99.90;;;;;;5088890;28;20388;-58
2023/03/06 13:06:13;;;;;;;18.15;7.30;;;7.10;99.90;;;;;;5089481;28;20416;-58
2023/03/06 13:09:07;;;;;;;13.05;5.30;;;7.20;99.90;;;;;;5089222;28;20447;-58